Opasatika, Canada
Current Conditions -  °F | °C
As of 5:00 PM on Friday 19 Dec 2014 (Local Time) from CYYU Reporting Station
Few Clouds Few Clouds  
Wind Chill: 12°   Ceiling: Unl
Heat Index: 12°   Visibility: 15mi
Dew Point: 10°   Wind: 2mph
Humidity: 92%   Direction: 160°SSE
Pressure: 30.29"   Gusts: NA
Location:  49.53°N, 82.87°W
Report Text: CYYU 192200Z 16002KT 15SM FEW120 M11/M12 A3029 RMK AC1 SLP280
Loading
Personal Weather Stations






























Interactive Weather Map New forecast layout! Learn more

10-Day Weather Forecast

Advertisements
Track Severe Weather on mobile